Coleman, Georgia
Current Conditions -  °F | °C
As of 7:15 AM on Friday 19 Dec 2014 (Local Time) from KBIJ Reporting Station
Scattered Clouds Scattered Clouds  
Wind Chill: 46°   Ceiling: Unl
Heat Index: 46°   Visibility: 10mi
Dew Point: 37°   Wind: 0mph
Humidity: 71%   Direction: NA
Pressure: 30.16"   Gusts: NA
Location:  31.67°N, 84.89°W
Report Text: KBIJ 191215Z AUTO 00000KT 10SM SCT046 SCT055 08/03 A3016 RMK AO2
Loading
Personal Weather Stations






























Interactive Weather Map New forecast layout! Learn more

10-Day Weather Forecast

Advertisements
Track Severe Weather on mobile